Terminal Aerodrome Forecast
Issued by NWS

Home | Current Version | Previous Version | Text Only | Print | Product List | Glossary On
Versions: 1 2 3 4 5 6 7 8 9 10 11 12 13 14 15 16 17 18 19 20 21 22 23 24 25 26 27 28
405
FTUS42 KCAE 222339
TAFOGB
TAF
KOGB 222339Z 2300/2324 11007KT 4SM -RA BR SCT006 BKN025 OVC035
     FM230300 10005KT P6SM SCT025 BKN035 OVC045
     FM230800 09005KT P6SM VCSH SCT006 OVC015
      TEMPO 2309/2312 BKN007
     FM231200 15008KT 4SM -SHRA BR SCT006 OVC015
     FM231500 15010G17KT 5SM -SHRA BR SCT006 OVC015=

USA.gov is the U.S. government's official web portal to all federal, state and local government web resources and services.